createdAt,value
2022-12-31T00:01:43.626Z,5.13
2022-12-31T00:06:53.270Z,5.24
2022-12-31T00:12:03.013Z,5.31
2022-12-31T00:17:12.798Z,5.32
2022-12-31T00:22:22.499Z,5.37
2022-12-31T00:27:35.418Z,5.43
2022-12-31T00:32:45.062Z,5.48
2022-12-31T00:37:56.388Z,5.56
2022-12-31T00:43:06.001Z,5.62
2022-12-31T00:48:16.259Z,5.65
2022-12-31T00:53:26.994Z,5.68
2022-12-31T00:58:36.654Z,5.71
2022-12-31T01:03:46.953Z,5.78
2022-12-31T01:08:57.712Z,5.84
2022-12-31T01:14:12.291Z,5.88
2022-12-31T01:19:25.307Z,5.88
2022-12-31T01:24:34.993Z,5.93
2022-12-31T01:29:44.622Z,5.98
2022-12-31T01:34:54.241Z,6.00
2022-12-31T01:40:04.159Z,6.03
2022-12-31T01:45:18.089Z,6.09
2022-12-31T01:50:33.312Z,6.15
2022-12-31T01:55:48.986Z,6.24
2022-12-31T02:01:01.073Z,6.23
2022-12-31T02:06:19.955Z,6.25
2022-12-31T02:11:35.603Z,6.28
2022-12-31T02:16:56.585Z,6.33
2022-12-31T02:22:19.290Z,6.44
2022-12-31T02:27:47.138Z,6.51
2022-12-31T02:33:30.577Z,6.55
2022-12-31T02:38:46.398Z,6.63
2022-12-31T02:43:56.470Z,6.70
2022-12-31T02:49:17.860Z,6.73
2022-12-31T02:54:43.327Z,6.70
2022-12-31T03:00:16.829Z,6.65
2022-12-31T03:05:31.060Z,6.59
2022-12-31T03:10:40.999Z,6.55
2022-12-31T03:15:51.125Z,6.55
2022-12-31T03:21:18.639Z,6.56
2022-12-31T03:26:28.227Z,6.60
2022-12-31T03:31:37.992Z,6.63
2022-12-31T03:36:47.610Z,6.67
2022-12-31T03:41:57.407Z,6.72
2022-12-31T03:47:07.247Z,6.75
2022-12-31T03:52:17.192Z,6.76
2022-12-31T03:57:27.542Z,6.76
2022-12-31T04:02:37.465Z,6.76
2022-12-31T04:07:48.123Z,6.78
2022-12-31T04:13:00.516Z,6.78
2022-12-31T04:18:10.545Z,6.77
2022-12-31T04:23:20.407Z,6.76
2022-12-31T04:28:30.177Z,6.74
2022-12-31T04:33:39.894Z,6.73
2022-12-31T04:38:49.571Z,6.73
2022-12-31T04:44:01.802Z,6.70
2022-12-31T04:49:12.205Z,6.64
2022-12-31T04:54:22.151Z,6.58
2022-12-31T04:59:32.572Z,6.54
2022-12-31T05:04:42.792Z,6.50
2022-12-31T05:09:53.041Z,6.48
2022-12-31T05:15:02.762Z,6.49
2022-12-31T05:20:13.740Z,6.46
2022-12-31T05:25:23.419Z,6.44
2022-12-31T05:30:33.320Z,6.42
2022-12-31T05:35:43.402Z,6.45
2022-12-31T05:41:00.261Z,6.51
2022-12-31T05:46:10.690Z,6.59
2022-12-31T05:51:20.597Z,6.66
2022-12-31T05:56:30.267Z,6.73
2022-12-31T06:01:40.410Z,6.79
2022-12-31T06:06:49.983Z,6.82
2022-12-31T06:12:00.224Z,6.87
2022-12-31T06:17:09.835Z,6.91
2022-12-31T06:22:19.538Z,6.94
2022-12-31T06:27:29.236Z,6.97
2022-12-31T06:32:39.657Z,7.00
2022-12-31T06:37:50.868Z,7.03
2022-12-31T06:43:00.678Z,7.03
2022-12-31T06:48:11.254Z,7.07
2022-12-31T06:53:20.899Z,7.11
2022-12-31T06:58:32.099Z,7.18
2022-12-31T07:03:53.334Z,7.19
2022-12-31T07:09:13.347Z,7.22
2022-12-31T07:14:37.737Z,7.24
2022-12-31T07:20:02.159Z,7.26
2022-12-31T07:25:17.175Z,7.30
2022-12-31T07:30:37.256Z,7.36
2022-12-31T07:35:58.622Z,7.40
2022-12-31T07:41:18.650Z,7.46
2022-12-31T07:46:41.597Z,7.50
2022-12-31T07:51:53.462Z,7.57
2022-12-31T07:57:03.446Z,7.65
2022-12-31T08:02:27.463Z,7.69
2022-12-31T08:07:48.684Z,7.71
2022-12-31T08:13:06.121Z,7.79
2022-12-31T08:18:17.987Z,7.82
2022-12-31T08:23:38.742Z,7.92
2022-12-31T08:29:17.475Z,8.04
2022-12-31T08:34:40.846Z,8.18
2022-12-31T08:40:09.491Z,8.24
2022-12-31T08:45:27.977Z,8.26
2022-12-31T08:50:39.191Z,8.34
2022-12-31T08:55:53.097Z,8.41
2022-12-31T09:01:05.542Z,8.46
2022-12-31T09:06:27.605Z,8.47
2022-12-31T09:11:56.516Z,8.44
2022-12-31T09:17:26.737Z,8.53
2022-12-31T09:22:38.401Z,8.64
2022-12-31T09:27:59.984Z,8.71
2022-12-31T09:33:18.536Z,8.73
2022-12-31T09:38:39.162Z,8.78
2022-12-31T09:44:48.996Z,8.83
2022-12-31T09:50:39.144Z,8.91
2022-12-31T09:55:54.736Z,8.92
2022-12-31T10:01:22.503Z,8.95
2022-12-31T10:06:48.231Z,9.03
2022-12-31T10:12:37.029Z,9.11
2022-12-31T10:18:08.170Z,9.15
2022-12-31T10:23:40.497Z,9.14
2022-12-31T10:29:01.517Z,9.16
2022-12-31T10:34:32.889Z,9.22
2022-12-31T10:40:03.865Z,9.29
2022-12-31T10:46:05.497Z,9.30
2022-12-31T10:52:04.339Z,9.34
2022-12-31T10:58:12.636Z,9.34
2022-12-31T11:04:15.515Z,9.34
2022-12-31T11:10:14.408Z,9.36
2022-12-31T11:15:54.515Z,9.38
2022-12-31T11:21:37.891Z,9.41
2022-12-31T11:27:19.621Z,9.39
2022-12-31T11:32:53.782Z,9.35
2022-12-31T11:38:22.999Z,9.37
2022-12-31T11:43:43.071Z,9.44
2022-12-31T11:49:13.771Z,9.49
2022-12-31T11:54:54.351Z,9.54
2022-12-31T12:00:08.984Z,9.59
2022-12-31T12:05:23.501Z,9.62
2022-12-31T12:10:43.753Z,9.62
2022-12-31T12:15:57.123Z,9.60
2022-12-31T12:21:15.172Z,9.61
2022-12-31T12:26:40.119Z,9.63
2022-12-31T12:32:01.196Z,9.63
2022-12-31T12:37:29.654Z,9.66
2022-12-31T12:42:47.689Z,9.68
2022-12-31T12:48:04.107Z,9.74
2022-12-31T12:53:35.493Z,9.83
2022-12-31T12:59:02.344Z,9.93
2022-12-31T13:05:05.269Z,10.00
2022-12-31T13:10:35.543Z,10.02
2022-12-31T13:15:52.570Z,10.08
2022-12-31T13:21:21.568Z,10.14
2022-12-31T13:26:37.533Z,10.17
2022-12-31T13:31:50.405Z,10.23
2022-12-31T13:37:08.557Z,10.34
2022-12-31T13:42:31.431Z,10.42
2022-12-31T13:47:47.879Z,10.54
2022-12-31T13:53:04.887Z,10.65
2022-12-31T13:58:24.982Z,10.75
2022-12-31T14:03:47.947Z,10.82
2022-12-31T14:08:58.691Z,10.83
2022-12-31T14:14:25.692Z,10.83
2022-12-31T14:20:03.672Z,10.84
2022-12-31T14:25:25.576Z,10.87
2022-12-31T14:30:41.916Z,10.93
2022-12-31T14:36:12.936Z,10.98
2022-12-31T14:41:45.865Z,11.04
2022-12-31T14:47:16.707Z,11.10
2022-12-31T14:52:31.086Z,11.15
2022-12-31T14:58:17.100Z,11.22
2022-12-31T15:03:41.263Z,11.32
2022-12-31T15:09:11.144Z,11.44
2022-12-31T15:14:52.454Z,11.57
2022-12-31T15:20:33.423Z,11.68
2022-12-31T15:25:51.010Z,11.73
2022-12-31T15:31:07.418Z,11.78
2022-12-31T15:36:24.544Z,11.82
2022-12-31T15:42:10.365Z,11.86
2022-12-31T15:47:29.037Z,11.90
2022-12-31T15:52:46.928Z,11.94
2022-12-31T15:58:00.507Z,11.96
2022-12-31T16:03:25.343Z,11.99
2022-12-31T16:08:38.750Z,12.01
2022-12-31T16:13:54.184Z,12.07
2022-12-31T16:19:04.457Z,12.14
2022-12-31T16:24:33.186Z,12.22
2022-12-31T16:29:55.825Z,12.21
2022-12-31T16:35:23.599Z,12.21
2022-12-31T16:40:34.156Z,12.17
2022-12-31T16:45:44.702Z,12.13
2022-12-31T16:50:57.492Z,12.12
2022-12-31T16:56:10.571Z,12.11
2022-12-31T17:01:26.576Z,12.14
2022-12-31T17:06:36.563Z,12.18
2022-12-31T17:11:54.296Z,12.22
2022-12-31T17:17:08.539Z,12.28
2022-12-31T17:22:35.802Z,12.31
2022-12-31T17:27:59.761Z,12.37
2022-12-31T17:33:34.163Z,12.42
2022-12-31T17:38:44.319Z,12.40
2022-12-31T17:43:58.354Z,12.35
2022-12-31T17:49:11.325Z,12.27
2022-12-31T17:54:22.699Z,12.28
2022-12-31T17:59:34.252Z,12.38
2022-12-31T18:04:43.927Z,12.50
2022-12-31T18:09:53.853Z,12.57
2022-12-31T18:15:03.812Z,12.63
2022-12-31T18:20:15.756Z,12.64
2022-12-31T18:25:27.094Z,12.60
2022-12-31T18:30:38.364Z,12.59
2022-12-31T18:36:08.352Z,12.57
2022-12-31T18:41:23.969Z,12.55
2022-12-31T18:46:33.650Z,12.52
2022-12-31T18:51:43.374Z,12.47
2022-12-31T18:56:57.015Z,12.37
2022-12-31T19:02:07.491Z,12.25
2022-12-31T19:07:17.191Z,12.18
2022-12-31T19:12:26.885Z,12.15
2022-12-31T19:17:36.721Z,12.07
2022-12-31T19:22:46.598Z,12.03
2022-12-31T19:27:56.644Z,12.03
2022-12-31T19:33:06.305Z,12.09
2022-12-31T19:38:23.938Z,12.13
2022-12-31T19:43:33.598Z,12.14
2022-12-31T19:48:43.746Z,12.17
2022-12-31T19:53:54.455Z,12.21
2022-12-31T19:59:09.699Z,12.24
2022-12-31T20:04:19.730Z,12.28
2022-12-31T20:09:29.603Z,12.31
2022-12-31T20:14:39.265Z,12.35
2022-12-31T20:19:49.198Z,12.42
2022-12-31T20:24:59.082Z,12.46
2022-12-31T20:30:11.429Z,12.47
2022-12-31T20:35:22.921Z,12.50
2022-12-31T20:40:33.752Z,12.52
2022-12-31T20:45:45.925Z,12.56
2022-12-31T20:51:01.196Z,12.60
2022-12-31T20:56:12.364Z,12.64
2022-12-31T21:01:23.442Z,12.67
2022-12-31T21:06:34.327Z,12.66
2022-12-31T21:12:01.665Z,12.62
2022-12-31T21:17:11.497Z,12.56
2022-12-31T21:22:21.547Z,12.49
2022-12-31T21:27:31.531Z,12.47
2022-12-31T21:32:41.118Z,12.50
2022-12-31T21:37:58.903Z,12.53
2022-12-31T21:43:10.457Z,12.63
2022-12-31T21:48:25.304Z,12.69
2022-12-31T21:53:37.191Z,12.75
2022-12-31T21:59:10.106Z,12.76
2022-12-31T22:04:59.806Z,12.72
2022-12-31T22:09:49.885Z,12.76
2022-12-31T22:15:15.913Z,12.78
2022-12-31T22:20:27.878Z,12.81
2022-12-31T22:25:40.623Z,12.88
2022-12-31T22:30:52.387Z,12.94
2022-12-31T22:36:09.565Z,13.01
2022-12-31T22:41:22.042Z,13.09
2022-12-31T22:46:33.427Z,13.10
2022-12-31T22:51:56.046Z,13.07
2022-12-31T22:57:13.312Z,13.04
2022-12-31T23:02:25.987Z,13.12
2022-12-31T23:07:35.946Z,13.23
2022-12-31T23:12:45.596Z,13.33
2022-12-31T23:18:12.800Z,13.52
2022-12-31T23:23:22.857Z,13.68
2022-12-31T23:28:32.456Z,13.84
2022-12-31T23:33:42.164Z,14.04
2022-12-31T23:38:54.962Z,14.13
2022-12-31T23:44:04.747Z,14.17
2022-12-31T23:49:14.868Z,14.17
2022-12-31T23:54:24.748Z,14.21
2022-12-31T23:59:34.535Z,14.24
